createdAt,value
2023-05-14T00:06:24.355Z,94.95
2023-05-14T00:21:24.228Z,96.22
2023-05-14T00:36:25.331Z,96.58
2023-05-14T00:51:25.918Z,97.81
2023-05-14T01:06:26.566Z,98.68
2023-05-14T01:21:27.070Z,96.77
2023-05-14T01:36:27.692Z,92.29
2023-05-14T01:51:27.781Z,87.99
2023-05-14T02:06:28.423Z,83.61
2023-05-14T02:21:28.438Z,81.03
2023-05-14T02:36:28.546Z,78.24
2023-05-14T02:51:28.622Z,76.90
2023-05-14T03:06:29.855Z,75.63
2023-05-14T03:21:30.363Z,77.00
2023-05-14T03:36:30.473Z,82.59
2023-05-14T03:51:30.587Z,90.32
2023-05-14T04:06:30.627Z,96.50
2023-05-14T04:21:30.790Z,99.28
2023-05-14T04:36:30.895Z,99.99
2023-05-14T04:51:31.571Z,98.52
2023-05-14T05:06:31.666Z,95.52
2023-05-14T05:21:31.637Z,91.93
2023-05-14T05:36:31.762Z,87.18
2023-05-14T05:51:31.869Z,76.38
2023-05-14T06:06:31.939Z,74.05
2023-05-14T06:21:32.506Z,70.32
2023-05-14T06:36:32.601Z,64.16
2023-05-14T06:51:33.294Z,60.44
2023-05-14T07:06:33.726Z,61.30
2023-05-14T07:21:34.349Z,61.30
2023-05-14T07:36:34.992Z,62.45
2023-05-14T07:51:36.938Z,62.55
2023-05-14T08:06:37.429Z,62.65
2023-05-14T08:21:38.072Z,60.51
2023-05-14T08:36:38.143Z,60.45
2023-05-14T08:51:38.300Z,59.86
2023-05-14T09:06:38.860Z,57.85
2023-05-14T09:21:38.875Z,51.04
2023-05-14T09:36:39.018Z,48.65
2023-05-14T09:51:39.144Z,47.21
2023-05-14T10:06:39.349Z,42.86
2023-05-14T10:21:39.307Z,43.35
2023-05-14T10:36:40.414Z,43.04
2023-05-14T10:51:40.566Z,43.24
2023-05-14T11:06:40.572Z,43.28
2023-05-14T11:21:40.729Z,43.76
2023-05-14T11:36:40.768Z,45.98
2023-05-14T11:51:40.904Z,47.85
2023-05-14T12:06:40.915Z,45.81
2023-05-14T12:21:41.086Z,48.53
2023-05-14T12:36:41.617Z,47.20
2023-05-14T12:51:41.704Z,48.69
2023-05-14T13:06:42.677Z,50.79
2023-05-14T13:21:43.347Z,50.37
2023-05-14T13:36:44.541Z,48.72
2023-05-14T13:51:44.483Z,49.15
2023-05-14T14:06:44.536Z,49.43
2023-05-14T14:21:44.734Z,49.78
2023-05-14T14:36:45.144Z,45.06
2023-05-14T14:51:45.370Z,45.67
2023-05-14T15:06:45.262Z,48.58
2023-05-14T15:21:45.669Z,49.42
2023-05-14T15:36:45.888Z,48.90
2023-05-14T15:51:46.311Z,48.84
2023-05-14T16:06:46.504Z,50.46
2023-05-14T16:21:46.697Z,51.67
2023-05-14T16:36:47.017Z,51.77
2023-05-14T16:51:47.138Z,51.77
2023-05-14T17:06:47.354Z,53.00
2023-05-14T17:21:47.567Z,54.02
2023-05-14T17:36:50.175Z,55.05
2023-05-14T17:51:51.061Z,54.93
2023-05-14T18:06:51.186Z,56.92
2023-05-14T18:21:51.122Z,59.14
2023-05-14T18:36:51.514Z,62.59
2023-05-14T18:51:51.624Z,66.92
2023-05-14T19:06:51.591Z,68.84
2023-05-14T19:21:52.183Z,72.14
2023-05-14T19:36:52.664Z,72.58
2023-05-14T19:51:54.292Z,75.22
2023-05-14T20:06:54.290Z,76.51
2023-05-14T20:21:54.866Z,78.27
2023-05-14T20:36:55.850Z,77.19
2023-05-14T20:51:56.295Z,77.53
2023-05-14T21:06:56.938Z,78.52
2023-05-14T21:21:57.586Z,81.79
2023-05-14T21:36:57.649Z,85.33
2023-05-14T21:51:58.171Z,90.75
2023-05-14T22:06:58.294Z,92.83
2023-05-14T22:21:58.394Z,94.29
2023-05-14T22:36:59.014Z,97.14
2023-05-14T22:51:59.618Z,98.25
2023-05-14T23:06:59.760Z,99.79
2023-05-14T23:21:59.740Z,98.80
2023-05-14T23:37:00.864Z,99.99
2023-05-14T23:52:01.660Z,96.80
